RAAF Base Curtin
YCIN : now visible

Aeroporto :











RITROVATECI SU...

 
LOGIN :

Iscrizione | Disclaimer

   EN    FR    IT 

 









Sommario :    VFR   VFR Marginale   IFR   IFR Intensivo   IFR Molto Intensivo
Visibilità : 
Base nubi : 
>= 8 km
>= 3000ft
5 / 8 km
1000 / 3000 ft
1500m / 5 km
500 / 1000 ft
800 / 1500m
200 / 500 ft
< 800m
< 200 ft
Simboli :   Temporali  Nebbia  Neve Forte  Precipitazioni Forti  Vento > 20 kt






- Altitudine del aeroporto : 300 ft


YCIN - RAAF Base Curtin

ULTIMO METAR :
  • 251600Z AUTO 30004KT 9999 // NCD 29/23 Q1006 RF00.0/000.0

METARs OBSOLETI :
  • 251530Z AUTO 32005KT 9999 // NCD 29/23 Q1006 RF00.0/000.0
  • 251500Z AUTO 33004KT 9999 // NCD 29/23 Q1006
  • 251430Z AUTO 34005KT 9999 // NCD 29/23 Q1006 RF00.0/000.0
  • 251400Z AUTO 31004KT 9999 // NCD 29/24 Q1006
  • 251330Z AUTO 34005KT 9999 // NCD 29/23 Q1006 RF00.0/000.0

TAF AMD TAF YCIN
Valido dal 25 a 12 ore il 26 a 02 ore UTC


251247Z 2512/2602 31005KT CAVOK
FM251800 22005KT 9999 SCT012
FM260100 24008KT CAVOK
FIR YBBB / Oceania



MetMap, La meteo Aeronautica in un colpo d'occhio ! - Copyright ORBIFLY Dicembre 2007 - Disclaimer

ORBIFLY MET'MAP TEAM :

Programmazione e sviluppo : Alexandra Zaïnal
Concezione : Baudouin d'Aumeries
Aiuto per la programmazione : Marc-Olivier Méhu
Supporto tecnico e logistico : Manuel Goepfert
Aiuto per la traduzione : Arnaldo La Scala

Contatto : metmap@orbifly.com




FONTI E CREDITI :

   NOAA       Earth
Advisory